Etusivu
METAR-TAF:

METAR-TAF

Lentoasemat :

Hohn, Saksa

Leveyspiiri: 54-19N, Pituuspiiri: 009-32E, korkeus merenpinnasta: 12 m

Tämänhetkinen sää

Tämä raportti tehtiin 1 tunti ja 2 minuuttia sitten, kello 18.20 UTC
Tuuli 11 kn koillisesta
Lämpötila 7°C
Kosteus 100%
Ilmanpaine 1006 hPa

METAR: ETNH 031820Z AUTO 05011KT //// // ////// 07/07 Q1006 ///

Aika: 20:22 (19:22 UTC)


TAF: puuttuu

Säähavainnot ja -ennusteet yli 4000 lentoasemalta (METAR- ja TAF-raportit).

Käytössä olevat sääasemat on merkitty karttaan keltaisilla ja punaisilla pisteillä.

Aseta hiiri pisteen päälle nähdäksesi sääaseman nimen.

Klikkaa sitten nähdäksesi säähavainnot ja -ennusteet.

Kartan vaihtaminen: klikkaa mustalla rastilla varustettuja vihreitä pisteitä, niin voit zoomata sisään; viivalla varustettua vihreää pistettä, niin voit zoomata ulos tai vihreitä nuolia, niin pääset viereisille kartoille.


METAR-TAF: